sensor_id;sensor_type;location;lat;lon;timestamp;P1;durP1;ratioP1;P2;durP2;ratioP2
15669;SDS011;18524;45.190;5.732;2023-04-19T00:00:58;4.73;;;4.33;;
15669;SDS011;18524;45.190;5.732;2023-04-19T00:05:50;4.97;;;4.57;;
15669;SDS011;18524;45.190;5.732;2023-04-19T00:10:43;5.53;;;4.80;;
15669;SDS011;18524;45.190;5.732;2023-04-19T00:15:33;5.00;;;4.50;;
15669;SDS011;18524;45.190;5.732;2023-04-19T00:20:24;4.63;;;4.00;;
15669;SDS011;18524;45.190;5.732;2023-04-19T00:25:14;4.73;;;3.33;;
15669;SDS011;18524;45.190;5.732;2023-04-19T00:30:05;3.50;;;3.13;;
15669;SDS011;18524;45.190;5.732;2023-04-19T00:34:55;3.80;;;3.40;;
15669;SDS011;18524;45.190;5.732;2023-04-19T00:39:46;3.60;;;3.30;;
15669;SDS011;18524;45.190;5.732;2023-04-19T00:44:36;3.70;;;3.30;;
15669;SDS011;18524;45.190;5.732;2023-04-19T00:49:26;3.50;;;3.20;;
15669;SDS011;18524;45.190;5.732;2023-04-19T00:54:17;4.27;;;3.80;;
15669;SDS011;18524;45.190;5.732;2023-04-19T00:59:08;4.73;;;4.30;;
15669;SDS011;18524;45.190;5.732;2023-04-19T01:04:01;4.30;;;3.90;;
15669;SDS011;18524;45.190;5.732;2023-04-19T01:08:52;4.73;;;4.33;;
15669;SDS011;18524;45.190;5.732;2023-04-19T01:13:42;4.90;;;4.40;;
15669;SDS011;18524;45.190;5.732;2023-04-19T01:18:33;5.10;;;4.60;;
15669;SDS011;18524;45.190;5.732;2023-04-19T01:23:26;4.87;;;4.40;;
15669;SDS011;18524;45.190;5.732;2023-04-19T01:28:16;4.83;;;4.43;;
15669;SDS011;18524;45.190;5.732;2023-04-19T01:33:07;4.73;;;4.33;;
15669;SDS011;18524;45.190;5.732;2023-04-19T01:37:57;4.57;;;4.17;;
15669;SDS011;18524;45.190;5.732;2023-04-19T01:42:48;4.30;;;4.00;;
15669;SDS011;18524;45.190;5.732;2023-04-19T01:47:38;4.57;;;4.10;;
15669;SDS011;18524;45.190;5.732;2023-04-19T01:52:28;4.80;;;4.40;;
15669;SDS011;18524;45.190;5.732;2023-04-19T01:57:19;4.87;;;4.47;;
15669;SDS011;18524;45.190;5.732;2023-04-19T02:02:09;5.80;;;5.20;;
15669;SDS011;18524;45.190;5.732;2023-04-19T02:06:59;5.80;;;5.13;;
15669;SDS011;18524;45.190;5.732;2023-04-19T02:11:50;5.37;;;4.87;;
15669;SDS011;18524;45.190;5.732;2023-04-19T02:16:40;4.90;;;4.50;;
15669;SDS011;18524;45.190;5.732;2023-04-19T02:21:30;5.07;;;4.57;;
15669;SDS011;18524;45.190;5.732;2023-04-19T02:26:21;4.60;;;4.20;;
15669;SDS011;18524;45.190;5.732;2023-04-19T02:31:13;4.83;;;3.93;;
15669;SDS011;18524;45.190;5.732;2023-04-19T02:36:03;4.00;;;3.70;;
15669;SDS011;18524;45.190;5.732;2023-04-19T02:40:54;4.30;;;3.90;;
15669;SDS011;18524;45.190;5.732;2023-04-19T02:45:44;4.10;;;3.70;;
15669;SDS011;18524;45.190;5.732;2023-04-19T02:50:35;4.00;;;3.70;;
15669;SDS011;18524;45.190;5.732;2023-04-19T02:55:27;4.03;;;3.63;;
15669;SDS011;18524;45.190;5.732;2023-04-19T03:00:17;4.37;;;4.00;;
15669;SDS011;18524;45.190;5.732;2023-04-19T03:05:08;4.40;;;3.93;;
15669;SDS011;18524;45.190;5.732;2023-04-19T03:09:59;5.03;;;4.53;;
15669;SDS011;18524;45.190;5.732;2023-04-19T03:14:49;4.40;;;4.00;;
15669;SDS011;18524;45.190;5.732;2023-04-19T03:19:40;4.40;;;3.97;;
15669;SDS011;18524;45.190;5.732;2023-04-19T03:24:30;4.70;;;4.00;;
15669;SDS011;18524;45.190;5.732;2023-04-19T03:29:21;4.90;;;4.50;;
15669;SDS011;18524;45.190;5.732;2023-04-19T03:34:11;4.77;;;4.37;;
15669;SDS011;18524;45.190;5.732;2023-04-19T03:39:02;4.93;;;4.17;;
15669;SDS011;18524;45.190;5.732;2023-04-19T03:43:52;4.40;;;3.97;;
15669;SDS011;18524;45.190;5.732;2023-04-19T03:48:43;4.37;;;3.97;;
15669;SDS011;18524;45.190;5.732;2023-04-19T03:53:33;3.83;;;3.43;;
15669;SDS011;18524;45.190;5.732;2023-04-19T03:58:24;4.07;;;3.70;;
15669;SDS011;18524;45.190;5.732;2023-04-19T04:03:15;3.97;;;3.60;;
15669;SDS011;18524;45.190;5.732;2023-04-19T04:08:05;4.23;;;3.87;;
15669;SDS011;18524;45.190;5.732;2023-04-19T04:12:55;5.20;;;4.03;;
15669;SDS011;18524;45.190;5.732;2023-04-19T04:17:46;4.40;;;4.00;;
15669;SDS011;18524;45.190;5.732;2023-04-19T04:22:39;5.00;;;4.50;;
15669;SDS011;18524;45.190;5.732;2023-04-19T04:27:31;5.73;;;5.20;;
15669;SDS011;18524;45.190;5.732;2023-04-19T04:32:22;6.50;;;5.90;;
15669;SDS011;18524;45.190;5.732;2023-04-19T04:37:12;6.63;;;6.00;;
15669;SDS011;18524;45.190;5.732;2023-04-19T04:42:03;6.67;;;5.80;;
15669;SDS011;18524;45.190;5.732;2023-04-19T04:46:54;7.33;;;6.17;;
15669;SDS011;18524;45.190;5.732;2023-04-19T04:51:44;6.60;;;5.93;;
15669;SDS011;18524;45.190;5.732;2023-04-19T04:56:35;7.17;;;5.37;;
15669;SDS011;18524;45.190;5.732;2023-04-19T05:01:25;6.30;;;5.70;;
15669;SDS011;18524;45.190;5.732;2023-04-19T05:06:16;5.20;;;4.70;;
15669;SDS011;18524;45.190;5.732;2023-04-19T05:11:06;4.77;;;4.37;;
15669;SDS011;18524;45.190;5.732;2023-04-19T05:15:57;4.93;;;4.40;;
15669;SDS011;18524;45.190;5.732;2023-04-19T05:20:48;6.57;;;5.30;;
15669;SDS011;18524;45.190;5.732;2023-04-19T05:25:38;6.20;;;5.60;;
15669;SDS011;18524;45.190;5.732;2023-04-19T05:30:28;5.97;;;5.47;;
15669;SDS011;18524;45.190;5.732;2023-04-19T05:35:19;6.43;;;5.83;;
15669;SDS011;18524;45.190;5.732;2023-04-19T05:40:09;5.70;;;5.20;;
15669;SDS011;18524;45.190;5.732;2023-04-19T05:45:00;5.13;;;4.70;;
15669;SDS011;18524;45.190;5.732;2023-04-19T05:49:51;5.13;;;4.63;;
15669;SDS011;18524;45.190;5.732;2023-04-19T05:54:41;5.37;;;4.40;;
15669;SDS011;18524;45.190;5.732;2023-04-19T05:59:32;6.47;;;4.30;;
15669;SDS011;18524;45.190;5.732;2023-04-19T06:04:23;5.20;;;4.80;;
15669;SDS011;18524;45.190;5.732;2023-04-19T06:09:13;5.27;;;4.80;;
15669;SDS011;18524;45.190;5.732;2023-04-19T06:14:04;7.33;;;5.43;;
15669;SDS011;18524;45.190;5.732;2023-04-19T06:18:55;6.30;;;5.57;;
15669;SDS011;18524;45.190;5.732;2023-04-19T06:23:46;8.10;;;5.83;;
15669;SDS011;18524;45.190;5.732;2023-04-19T06:28:36;5.80;;;5.20;;
15669;SDS011;18524;45.190;5.732;2023-04-19T06:33:26;6.10;;;4.70;;
15669;SDS011;18524;45.190;5.732;2023-04-19T06:38:17;5.47;;;4.43;;
15669;SDS011;18524;45.190;5.732;2023-04-19T06:43:07;4.70;;;4.20;;
15669;SDS011;18524;45.190;5.732;2023-04-19T06:47:57;5.60;;;4.03;;
15669;SDS011;18524;45.190;5.732;2023-04-19T06:52:48;4.70;;;4.10;;
15669;SDS011;18524;45.190;5.732;2023-04-19T06:57:38;6.30;;;4.70;;
15669;SDS011;18524;45.190;5.732;2023-04-19T07:02:28;4.97;;;4.57;;
15669;SDS011;18524;45.190;5.732;2023-04-19T07:07:19;5.03;;;4.60;;
15669;SDS011;18524;45.190;5.732;2023-04-19T07:12:09;6.20;;;5.60;;
15669;SDS011;18524;45.190;5.732;2023-04-19T07:17:02;5.47;;;4.57;;
15669;SDS011;18524;45.190;5.732;2023-04-19T07:21:53;6.00;;;4.57;;
15669;SDS011;18524;45.190;5.732;2023-04-19T07:26:44;4.93;;;4.50;;
15669;SDS011;18524;45.190;5.732;2023-04-19T07:31:34;5.70;;;5.20;;
15669;SDS011;18524;45.190;5.732;2023-04-19T07:36:25;8.60;;;5.27;;
15669;SDS011;18524;45.190;5.732;2023-04-19T07:41:16;5.13;;;4.73;;
15669;SDS011;18524;45.190;5.732;2023-04-19T07:46:11;4.57;;;4.27;;
15669;SDS011;18524;45.190;5.732;2023-04-19T07:51:09;5.30;;;4.80;;
15669;SDS011;18524;45.190;5.732;2023-04-19T07:56:04;4.93;;;4.47;;
15669;SDS011;18524;45.190;5.732;2023-04-19T08:00:56;4.90;;;4.43;;
15669;SDS011;18524;45.190;5.732;2023-04-19T08:05:46;5.07;;;4.57;;
15669;SDS011;18524;45.190;5.732;2023-04-19T08:10:37;5.77;;;4.50;;
15669;SDS011;18524;45.190;5.732;2023-04-19T08:15:27;8.67;;;5.50;;
15669;SDS011;18524;45.190;5.732;2023-04-19T08:20:17;5.37;;;4.80;;
15669;SDS011;18524;45.190;5.732;2023-04-19T08:25:08;8.03;;;5.20;;
15669;SDS011;18524;45.190;5.732;2023-04-19T08:29:59;5.33;;;4.83;;
15669;SDS011;18524;45.190;5.732;2023-04-19T08:34:49;6.80;;;5.30;;
15669;SDS011;18524;45.190;5.732;2023-04-19T08:39:40;5.20;;;4.80;;
15669;SDS011;18524;45.190;5.732;2023-04-19T08:44:30;5.47;;;4.93;;
15669;SDS011;18524;45.190;5.732;2023-04-19T08:49:21;6.90;;;6.13;;
15669;SDS011;18524;45.190;5.732;2023-04-19T08:54:12;7.53;;;5.70;;
15669;SDS011;18524;45.190;5.732;2023-04-19T08:59:03;5.40;;;4.90;;
15669;SDS011;18524;45.190;5.732;2023-04-19T09:03:53;6.80;;;4.87;;
15669;SDS011;18524;45.190;5.732;2023-04-19T09:08:44;8.33;;;7.57;;
15669;SDS011;18524;45.190;5.732;2023-04-19T09:13:34;9.43;;;6.90;;
15669;SDS011;18524;45.190;5.732;2023-04-19T09:18:27;7.43;;;6.47;;
15669;SDS011;18524;45.190;5.732;2023-04-19T09:23:17;5.50;;;5.00;;
15669;SDS011;18524;45.190;5.732;2023-04-19T09:28:11;5.37;;;4.87;;
15669;SDS011;18524;45.190;5.732;2023-04-19T09:33:02;6.17;;;4.30;;
15669;SDS011;18524;45.190;5.732;2023-04-19T09:37:59;4.80;;;4.40;;
15669;SDS011;18524;45.190;5.732;2023-04-19T09:42:50;5.70;;;4.30;;
15669;SDS011;18524;45.190;5.732;2023-04-19T09:47:40;4.80;;;4.30;;
15669;SDS011;18524;45.190;5.732;2023-04-19T09:52:31;4.63;;;3.97;;
15669;SDS011;18524;45.190;5.732;2023-04-19T09:57:23;4.53;;;4.13;;
15669;SDS011;18524;45.190;5.732;2023-04-19T10:02:15;5.00;;;4.60;;
15669;SDS011;18524;45.190;5.732;2023-04-19T10:07:07;5.40;;;4.90;;
15669;SDS011;18524;45.190;5.732;2023-04-19T10:11:57;5.23;;;4.70;;
15669;SDS011;18524;45.190;5.732;2023-04-19T10:16:50;7.57;;;4.70;;
15669;SDS011;18524;45.190;5.732;2023-04-19T10:21:40;4.93;;;4.57;;
15669;SDS011;18524;45.190;5.732;2023-04-19T10:27:04;6.03;;;4.80;;
15669;SDS011;18524;45.190;5.732;2023-04-19T10:31:57;5.33;;;4.93;;
15669;SDS011;18524;45.190;5.732;2023-04-19T10:36:48;4.93;;;4.53;;
15669;SDS011;18524;45.190;5.732;2023-04-19T10:41:57;5.93;;;5.10;;
15669;SDS011;18524;45.190;5.732;2023-04-19T10:46:48;4.07;;;3.77;;
15669;SDS011;18524;45.190;5.732;2023-04-19T10:51:38;4.60;;;4.00;;
15669;SDS011;18524;45.190;5.732;2023-04-19T11:01:36;4.50;;;4.10;;
15669;SDS011;18524;45.190;5.732;2023-04-19T11:06:32;4.30;;;4.00;;
15669;SDS011;18524;45.190;5.732;2023-04-19T11:11:23;5.13;;;3.43;;
15669;SDS011;18524;45.190;5.732;2023-04-19T11:16:16;4.17;;;3.87;;
15669;SDS011;18524;45.190;5.732;2023-04-19T11:21:11;3.87;;;3.57;;
15669;SDS011;18524;45.190;5.732;2023-04-19T11:26:02;6.70;;;3.90;;
15669;SDS011;18524;45.190;5.732;2023-04-19T11:30:53;4.30;;;3.90;;
15669;SDS011;18524;45.190;5.732;2023-04-19T11:35:44;4.63;;;3.57;;
15669;SDS011;18524;45.190;5.732;2023-04-19T11:40:34;3.70;;;3.40;;
15669;SDS011;18524;45.190;5.732;2023-04-19T11:45:31;3.90;;;3.20;;
15669;SDS011;18524;45.190;5.732;2023-04-19T11:50:33;3.57;;;2.90;;
15669;SDS011;18524;45.190;5.732;2023-04-19T11:55:31;3.07;;;2.83;;
15669;SDS011;18524;45.190;5.732;2023-04-19T12:00:28;2.87;;;2.67;;
15669;SDS011;18524;45.190;5.732;2023-04-19T12:05:19;2.90;;;2.60;;
15669;SDS011;18524;45.190;5.732;2023-04-19T12:10:10;2.87;;;2.67;;
15669;SDS011;18524;45.190;5.732;2023-04-19T12:15:01;5.10;;;2.50;;
15669;SDS011;18524;45.190;5.732;2023-04-19T12:19:51;3.50;;;3.20;;
15669;SDS011;18524;45.190;5.732;2023-04-19T12:24:42;3.00;;;2.80;;
15669;SDS011;18524;45.190;5.732;2023-04-19T12:29:32;2.87;;;2.67;;
15669;SDS011;18524;45.190;5.732;2023-04-19T12:34:23;3.00;;;2.70;;
15669;SDS011;18524;45.190;5.732;2023-04-19T12:39:13;2.93;;;2.63;;
15669;SDS011;18524;45.190;5.732;2023-04-19T12:44:04;3.37;;;2.50;;
15669;SDS011;18524;45.190;5.732;2023-04-19T12:48:54;2.40;;;2.20;;
15669;SDS011;18524;45.190;5.732;2023-04-19T12:53:48;3.53;;;2.90;;
15669;SDS011;18524;45.190;5.732;2023-04-19T12:58:39;4.17;;;2.93;;
15669;SDS011;18524;45.190;5.732;2023-04-19T13:03:29;3.07;;;2.37;;
15669;SDS011;18524;45.190;5.732;2023-04-19T13:08:21;2.10;;;2.00;;
15669;SDS011;18524;45.190;5.732;2023-04-19T13:13:12;2.60;;;2.00;;
15669;SDS011;18524;45.190;5.732;2023-04-19T13:18:02;2.60;;;2.10;;
15669;SDS011;18524;45.190;5.732;2023-04-19T13:22:53;3.80;;;2.37;;
15669;SDS011;18524;45.190;5.732;2023-04-19T13:27:43;2.43;;;2.20;;
15669;SDS011;18524;45.190;5.732;2023-04-19T13:32:35;2.70;;;2.00;;
15669;SDS011;18524;45.190;5.732;2023-04-19T13:37:25;2.37;;;2.13;;
15669;SDS011;18524;45.190;5.732;2023-04-19T13:42:17;4.33;;;2.40;;
15669;SDS011;18524;45.190;5.732;2023-04-19T13:47:08;3.60;;;2.47;;
15669;SDS011;18524;45.190;5.732;2023-04-19T13:51:58;3.23;;;2.80;;
15669;SDS011;18524;45.190;5.732;2023-04-19T13:56:48;4.57;;;3.30;;
15669;SDS011;18524;45.190;5.732;2023-04-19T14:01:39;2.93;;;2.57;;
15669;SDS011;18524;45.190;5.732;2023-04-19T14:06:29;3.13;;;2.80;;
15669;SDS011;18524;45.190;5.732;2023-04-19T14:11:21;3.00;;;2.70;;
15669;SDS011;18524;45.190;5.732;2023-04-19T14:16:12;2.70;;;2.50;;
15669;SDS011;18524;45.190;5.732;2023-04-19T14:21:03;2.90;;;2.70;;
15669;SDS011;18524;45.190;5.732;2023-04-19T14:25:54;2.87;;;2.67;;
15669;SDS011;18524;45.190;5.732;2023-04-19T14:30:44;3.00;;;2.50;;
15669;SDS011;18524;45.190;5.732;2023-04-19T14:35:34;2.87;;;2.67;;
15669;SDS011;18524;45.190;5.732;2023-04-19T14:40:25;2.30;;;2.10;;
15669;SDS011;18524;45.190;5.732;2023-04-19T14:45:16;2.93;;;2.70;;
15669;SDS011;18524;45.190;5.732;2023-04-19T14:50:06;3.33;;;2.90;;
15669;SDS011;18524;45.190;5.732;2023-04-19T14:54:57;2.83;;;2.63;;
15669;SDS011;18524;45.190;5.732;2023-04-19T14:59:48;2.53;;;2.33;;
15669;SDS011;18524;45.190;5.732;2023-04-19T15:04:39;2.93;;;2.73;;
15669;SDS011;18524;45.190;5.732;2023-04-19T15:09:29;5.40;;;2.73;;
15669;SDS011;18524;45.190;5.732;2023-04-19T15:14:20;2.50;;;2.30;;
15669;SDS011;18524;45.190;5.732;2023-04-19T15:19:10;2.90;;;2.70;;
15669;SDS011;18524;45.190;5.732;2023-04-19T15:24:00;3.07;;;2.70;;
15669;SDS011;18524;45.190;5.732;2023-04-19T15:28:51;2.50;;;2.40;;
15669;SDS011;18524;45.190;5.732;2023-04-19T15:33:43;2.50;;;2.30;;
15669;SDS011;18524;45.190;5.732;2023-04-19T15:38:33;2.43;;;2.20;;
15669;SDS011;18524;45.190;5.732;2023-04-19T15:43:24;2.60;;;2.40;;
15669;SDS011;18524;45.190;5.732;2023-04-19T15:48:14;2.37;;;2.27;;
15669;SDS011;18524;45.190;5.732;2023-04-19T15:53:05;2.23;;;2.03;;
15669;SDS011;18524;45.190;5.732;2023-04-19T15:57:56;2.50;;;2.30;;
15669;SDS011;18524;45.190;5.732;2023-04-19T16:02:46;2.53;;;2.10;;
15669;SDS011;18524;45.190;5.732;2023-04-19T16:07:37;2.40;;;2.20;;
15669;SDS011;18524;45.190;5.732;2023-04-19T16:12:27;2.30;;;2.20;;
15669;SDS011;18524;45.190;5.732;2023-04-19T16:17:18;2.60;;;2.40;;
15669;SDS011;18524;45.190;5.732;2023-04-19T16:22:08;2.50;;;2.40;;
15669;SDS011;18524;45.190;5.732;2023-04-19T16:26:59;3.07;;;2.40;;
15669;SDS011;18524;45.190;5.732;2023-04-19T16:31:50;2.47;;;2.30;;
15669;SDS011;18524;45.190;5.732;2023-04-19T16:36:40;2.63;;;2.20;;
15669;SDS011;18524;45.190;5.732;2023-04-19T16:41:33;2.37;;;2.23;;
15669;SDS011;18524;45.190;5.732;2023-04-19T16:46:24;3.60;;;2.60;;
15669;SDS011;18524;45.190;5.732;2023-04-19T16:51:14;4.60;;;3.53;;
15669;SDS011;18524;45.190;5.732;2023-04-19T16:56:05;2.40;;;2.23;;
15669;SDS011;18524;45.190;5.732;2023-04-19T17:00:55;3.23;;;2.90;;
15669;SDS011;18524;45.190;5.732;2023-04-19T17:05:47;3.60;;;3.30;;
15669;SDS011;18524;45.190;5.732;2023-04-19T17:10:37;4.33;;;3.20;;
15669;SDS011;18524;45.190;5.732;2023-04-19T17:15:28;3.33;;;3.03;;
15669;SDS011;18524;45.190;5.732;2023-04-19T17:20:18;4.43;;;3.63;;
15669;SDS011;18524;45.190;5.732;2023-04-19T17:25:08;3.57;;;3.27;;
15669;SDS011;18524;45.190;5.732;2023-04-19T17:29:59;3.03;;;2.70;;
15669;SDS011;18524;45.190;5.732;2023-04-19T17:34:49;3.20;;;2.90;;
15669;SDS011;18524;45.190;5.732;2023-04-19T17:39:40;3.40;;;3.20;;
15669;SDS011;18524;45.190;5.732;2023-04-19T17:44:30;3.57;;;3.27;;
15669;SDS011;18524;45.190;5.732;2023-04-19T17:49:20;3.83;;;3.23;;
15669;SDS011;18524;45.190;5.732;2023-04-19T17:54:11;4.83;;;3.97;;
15669;SDS011;18524;45.190;5.732;2023-04-19T17:59:02;4.00;;;3.60;;
15669;SDS011;18524;45.190;5.732;2023-04-19T18:03:53;3.93;;;3.53;;
15669;SDS011;18524;45.190;5.732;2023-04-19T18:08:43;5.27;;;4.13;;
15669;SDS011;18524;45.190;5.732;2023-04-19T18:13:34;3.23;;;2.97;;
15669;SDS011;18524;45.190;5.732;2023-04-19T18:18:25;3.60;;;2.97;;
15669;SDS011;18524;45.190;5.732;2023-04-19T18:23:15;2.90;;;2.70;;
15669;SDS011;18524;45.190;5.732;2023-04-19T18:28:06;4.00;;;3.10;;
15669;SDS011;18524;45.190;5.732;2023-04-19T18:32:56;3.20;;;2.97;;
15669;SDS011;18524;45.190;5.732;2023-04-19T18:37:47;3.37;;;3.07;;
15669;SDS011;18524;45.190;5.732;2023-04-19T18:42:38;3.50;;;3.20;;
15669;SDS011;18524;45.190;5.732;2023-04-19T18:47:28;3.57;;;3.27;;
15669;SDS011;18524;45.190;5.732;2023-04-19T18:52:19;10.10;;;8.30;;
15669;SDS011;18524;45.190;5.732;2023-04-19T18:57:10;9.10;;;7.13;;
15669;SDS011;18524;45.190;5.732;2023-04-19T19:02:00;8.10;;;7.20;;
15669;SDS011;18524;45.190;5.732;2023-04-19T19:06:50;8.10;;;6.90;;
15669;SDS011;18524;45.190;5.732;2023-04-19T19:11:41;6.87;;;5.60;;
15669;SDS011;18524;45.190;5.732;2023-04-19T19:16:31;7.77;;;6.40;;
15669;SDS011;18524;45.190;5.732;2023-04-19T19:21:22;8.47;;;6.83;;
15669;SDS011;18524;45.190;5.732;2023-04-19T19:26:12;10.50;;;7.17;;
15669;SDS011;18524;45.190;5.732;2023-04-19T19:31:03;10.47;;;8.53;;
15669;SDS011;18524;45.190;5.732;2023-04-19T19:35:53;8.10;;;7.30;;
15669;SDS011;18524;45.190;5.732;2023-04-19T19:40:43;5.03;;;4.60;;
15669;SDS011;18524;45.190;5.732;2023-04-19T19:45:34;7.13;;;4.13;;
15669;SDS011;18524;45.190;5.732;2023-04-19T19:50:25;4.10;;;3.70;;
15669;SDS011;18524;45.190;5.732;2023-04-19T19:55:17;4.70;;;4.27;;
15669;SDS011;18524;45.190;5.732;2023-04-19T20:00:08;4.90;;;4.50;;
15669;SDS011;18524;45.190;5.732;2023-04-19T20:05:03;5.60;;;5.10;;
15669;SDS011;18524;45.190;5.732;2023-04-19T20:09:54;6.33;;;5.73;;
15669;SDS011;18524;45.190;5.732;2023-04-19T20:14:44;6.03;;;5.53;;
15669;SDS011;18524;45.190;5.732;2023-04-19T20:19:35;6.73;;;6.03;;
15669;SDS011;18524;45.190;5.732;2023-04-19T20:24:26;6.03;;;5.43;;
15669;SDS011;18524;45.190;5.732;2023-04-19T20:29:17;6.37;;;5.60;;
15669;SDS011;18524;45.190;5.732;2023-04-19T20:34:07;6.97;;;5.30;;
15669;SDS011;18524;45.190;5.732;2023-04-19T20:38:57;5.80;;;5.20;;
15669;SDS011;18524;45.190;5.732;2023-04-19T20:43:50;5.60;;;5.07;;
15669;SDS011;18524;45.190;5.732;2023-04-19T20:48:41;5.60;;;5.07;;
15669;SDS011;18524;45.190;5.732;2023-04-19T20:53:31;7.70;;;7.00;;
15669;SDS011;18524;45.190;5.732;2023-04-19T20:58:23;6.50;;;5.90;;
15669;SDS011;18524;45.190;5.732;2023-04-19T21:03:13;6.30;;;5.80;;
15669;SDS011;18524;45.190;5.732;2023-04-19T21:08:03;6.07;;;5.47;;
15669;SDS011;18524;45.190;5.732;2023-04-19T21:12:54;5.87;;;5.17;;
15669;SDS011;18524;45.190;5.732;2023-04-19T21:17:45;7.07;;;6.20;;
15669;SDS011;18524;45.190;5.732;2023-04-19T21:22:35;7.90;;;7.00;;
15669;SDS011;18524;45.190;5.732;2023-04-19T21:27:25;8.53;;;7.50;;
15669;SDS011;18524;45.190;5.732;2023-04-19T21:32:16;8.77;;;7.70;;
15669;SDS011;18524;45.190;5.732;2023-04-19T21:37:06;6.47;;;5.43;;
15669;SDS011;18524;45.190;5.732;2023-04-19T21:41:56;4.97;;;4.40;;
15669;SDS011;18524;45.190;5.732;2023-04-19T21:46:47;5.33;;;4.53;;
15669;SDS011;18524;45.190;5.732;2023-04-19T21:51:37;5.77;;;5.23;;
15669;SDS011;18524;45.190;5.732;2023-04-19T21:56:27;6.53;;;5.70;;
15669;SDS011;18524;45.190;5.732;2023-04-19T22:01:18;10.47;;;5.97;;
15669;SDS011;18524;45.190;5.732;2023-04-19T22:06:08;5.83;;;5.13;;
15669;SDS011;18524;45.190;5.732;2023-04-19T22:10:59;5.27;;;4.83;;
15669;SDS011;18524;45.190;5.732;2023-04-19T22:15:50;6.30;;;5.70;;
15669;SDS011;18524;45.190;5.732;2023-04-19T22:20:41;7.83;;;5.77;;
15669;SDS011;18524;45.190;5.732;2023-04-19T22:25:31;5.97;;;5.40;;
15669;SDS011;18524;45.190;5.732;2023-04-19T22:30:22;5.80;;;5.17;;
15669;SDS011;18524;45.190;5.732;2023-04-19T22:35:12;6.53;;;5.37;;
15669;SDS011;18524;45.190;5.732;2023-04-19T22:40:03;6.40;;;5.10;;
15669;SDS011;18524;45.190;5.732;2023-04-19T22:44:56;5.87;;;5.20;;
15669;SDS011;18524;45.190;5.732;2023-04-19T22:49:47;5.63;;;4.97;;
15669;SDS011;18524;45.190;5.732;2023-04-19T22:54:38;5.53;;;5.03;;
15669;SDS011;18524;45.190;5.732;2023-04-19T22:59:28;4.67;;;4.27;;
15669;SDS011;18524;45.190;5.732;2023-04-19T23:04:19;4.97;;;4.57;;
15669;SDS011;18524;45.190;5.732;2023-04-19T23:09:09;5.20;;;4.40;;
15669;SDS011;18524;45.190;5.732;2023-04-19T23:14:02;5.70;;;5.20;;
15669;SDS011;18524;45.190;5.732;2023-04-19T23:18:53;5.10;;;4.60;;
15669;SDS011;18524;45.190;5.732;2023-04-19T23:23:43;6.23;;;4.53;;
15669;SDS011;18524;45.190;5.732;2023-04-19T23:28:34;5.50;;;5.00;;
15669;SDS011;18524;45.190;5.732;2023-04-19T23:33:25;4.83;;;3.97;;
15669;SDS011;18524;45.190;5.732;2023-04-19T23:38:15;4.70;;;4.30;;
15669;SDS011;18524;45.190;5.732;2023-04-19T23:43:06;4.70;;;4.20;;
15669;SDS011;18524;45.190;5.732;2023-04-19T23:47:56;4.90;;;4.07;;
15669;SDS011;18524;45.190;5.732;2023-04-19T23:52:46;4.50;;;4.10;;
15669;SDS011;18524;45.190;5.732;2023-04-19T23:57:37;4.90;;;4.33;;
